Terminal Aerodrome Forecast
Issued by NWS Cleveland, OH

Home | Current Version | Previous Version | Graphics & Text | Print | Product List | Glossary On
Versions: 1 2 3 4 5 6 7 8 9 10 11 12 13 14 15 16 17 18 19 20
000
FTUS41 KCLE 151124
TAFMFD
TAF
KMFD 151124Z 1512/1612 VRB02KT 4SM BR SCT004 BKN250
      TEMPO 1512/1514 2SM BR
     FM151500 VRB03KT P6SM BKN250=

USA.gov is the U.S. government's official web portal to all federal, state and local government web resources and services.